createdAt,value
2024-01-12T00:02:31.407Z,27.23489932885906
2024-01-12T00:09:11.556Z,28.08053691275168
2024-01-12T00:12:32.149Z,28.751677852348994
2024-01-12T00:15:53.555Z,28.12751677852349
2024-01-12T00:19:14.274Z,28.22818791946309
2024-01-12T00:22:34.903Z,28.248322147651006
2024-01-12T00:25:56.584Z,28.61744966442953
2024-01-12T00:29:22.555Z,28.201342281879196
2024-01-12T00:32:44.094Z,28.06040268456376
2024-01-12T00:36:04.947Z,27.70469798657718
2024-01-12T00:42:14.421Z,28.06040268456376
2024-01-12T00:45:35.212Z,28.20805369127517
2024-01-12T00:48:55.739Z,27.959731543624162
2024-01-12T00:52:17.430Z,26.684563758389263
2024-01-12T00:55:38.195Z,26.85234899328859
2024-01-12T00:58:59.804Z,27.395973154362416
2024-01-12T01:02:20.515Z,27.0
2024-01-12T01:06:54.161Z,25.879194630872483
2024-01-12T01:10:14.393Z,25.348993288590606
2024-01-12T01:13:35.081Z,25.261744966442954
2024-01-12T01:19:56.906Z,25.677852348993287
2024-01-12T01:23:17.590Z,26.322147651006713
2024-01-12T01:26:38.524Z,25.838926174496645
2024-01-12T01:29:59.761Z,26.19463087248322
2024-01-12T01:33:20.115Z,24.97986577181208
2024-01-12T01:36:40.937Z,24.879194630872483
2024-01-12T01:40:01.884Z,25.21476510067114
2024-01-12T01:48:46.221Z,25.959731543624162
2024-01-12T01:52:06.657Z,25.536912751677853
2024-01-12T01:55:27.467Z,24.93959731543624
2024-01-12T02:01:54.135Z,22.838926174496645
2024-01-12T02:05:14.828Z,23.06040268456376
2024-01-12T02:10:24.894Z,22.79194630872483
2024-01-12T02:13:46.225Z,23.08053691275168
2024-01-12T02:18:08.524Z,21.892617449664428
2024-01-12T02:21:28.956Z,22.758389261744966
2024-01-12T02:24:50.280Z,23.06040268456376
2024-01-12T02:28:10.675Z,23.053691275167786
2024-01-12T02:31:31.787Z,24.36241610738255
2024-01-12T02:34:54.230Z,26.483221476510067
2024-01-12T02:38:14.340Z,27.36241610738255
2024-01-12T02:41:34.409Z,28.973154362416107
2024-01-12T02:44:56.682Z,29.818791946308725
2024-01-12T02:48:17.106Z,33.88590604026846
2024-01-12T02:51:37.135Z,34.93288590604027
2024-01-12T02:54:58.239Z,33.691275167785236
2024-01-12T02:58:18.538Z,28.91946308724832
2024-01-12T03:01:38.752Z,26.436241610738254
2024-01-12T03:08:43.638Z,20.456375838926174
2024-01-12T03:12:04.458Z,18.40268456375839
2024-01-12T03:18:09.840Z,16.36241610738255
2024-01-12T03:21:30.377Z,15.523489932885907
2024-01-12T03:24:50.872Z,14.46979865771812
2024-01-12T03:28:24.968Z,14.288590604026846
2024-01-12T03:31:46.305Z,14.053691275167786
2024-01-12T03:35:06.585Z,14.140939597315436
2024-01-12T03:38:26.694Z,14.322147651006711
2024-01-12T03:41:47.300Z,15.275167785234899
2024-01-12T03:45:07.930Z,15.993288590604028
2024-01-12T03:48:28.962Z,15.543624161073826
2024-01-12T03:51:50.318Z,15.919463087248323
2024-01-12T03:55:10.494Z,14.899328859060402
2024-01-12T03:58:31.501Z,15.63758389261745
2024-01-12T04:01:52.126Z,16.248322147651006
2024-01-12T04:05:12.920Z,16.966442953020135
2024-01-12T04:08:33.291Z,17.812080536912752
2024-01-12T04:11:54.478Z,16.483221476510067
2024-01-12T04:17:22.593Z,18.13422818791946
2024-01-12T04:20:43.767Z,17.583892617449663
2024-01-12T04:24:04.409Z,18.335570469798657
2024-01-12T04:27:25.087Z,18.986577181208055
2024-01-12T04:31:20.826Z,18.986577181208055
2024-01-12T04:34:41.462Z,19.29530201342282
2024-01-12T04:38:01.902Z,17.825503355704697
2024-01-12T04:41:22.591Z,18.13422818791946
2024-01-12T04:44:43.796Z,17.825503355704697
2024-01-12T04:50:55.838Z,17.97986577181208
2024-01-12T04:54:15.982Z,18.97986577181208
2024-01-12T04:57:36.393Z,18.19463087248322
2024-01-12T05:00:57.225Z,18.34228187919463
2024-01-12T05:04:17.952Z,19.08724832214765
2024-01-12T05:09:44.344Z,19.288590604026847
2024-01-12T05:13:04.968Z,20.187919463087248
2024-01-12T05:16:26.415Z,19.892617449664428
2024-01-12T05:19:46.652Z,20.644295302013422
2024-01-12T05:23:08.104Z,19.684563758389263
2024-01-12T05:26:28.990Z,18.70469798657718
2024-01-12T05:29:50.952Z,18.664429530201343
2024-01-12T05:33:11.763Z,19.140939597315437
2024-01-12T05:37:55.381Z,19.046979865771814
2024-01-12T05:41:15.828Z,19.516778523489933
2024-01-12T05:44:36.827Z,19.120805369127517
2024-01-12T05:47:58.259Z,17.38255033557047
2024-01-12T05:51:19.209Z,16.74496644295302
2024-01-12T05:54:40.129Z,16.14765100671141
2024-01-12T05:58:00.775Z,13.40268456375839
2024-01-12T06:01:21.619Z,12.771812080536913
2024-01-12T06:04:42.057Z,10.161073825503356
2024-01-12T06:08:02.433Z,10.14765100671141
2024-01-12T06:11:22.765Z,9.966442953020135
2024-01-12T06:14:43.486Z,8.724832214765101
2024-01-12T06:18:04.115Z,10.369127516778523
2024-01-12T06:22:49.417Z,16.308724832214764
2024-01-12T06:26:09.106Z,20.953020134228186
2024-01-12T06:29:29.090Z,13.906040268456376
2024-01-12T06:34:04.945Z,8.06711409395973
2024-01-12T06:37:25.545Z,8.154362416107382
2024-01-12T06:42:41.360Z,9.926174496644295
2024-01-12T06:46:02.252Z,14.261744966442953
2024-01-12T06:49:22.239Z,8.738255033557047
2024-01-12T06:52:43.453Z,9.85234899328859
2024-01-12T06:56:03.537Z,14.25503355704698
2024-01-12T07:01:18.533Z,8.161073825503356
2024-01-12T07:04:39.173Z,9.167785234899329
2024-01-12T07:08:00.437Z,9.40268456375839
2024-01-12T07:14:35.768Z,9.523489932885907
2024-01-12T07:17:57.264Z,9.718120805369127
2024-01-12T07:21:18.256Z,10.912751677852349
2024-01-12T07:24:38.960Z,11.10738255033557
2024-01-12T07:27:59.755Z,11.919463087248323
2024-01-12T07:31:20.568Z,11.986577181208053
2024-01-12T07:34:41.837Z,12.053691275167786
2024-01-12T07:38:01.971Z,12.483221476510067
2024-01-12T07:41:22.609Z,14.409395973154362
2024-01-12T07:44:43.265Z,14.449664429530202
2024-01-12T07:48:04.129Z,15.342281879194632
2024-01-12T07:51:24.251Z,15.624161073825503
2024-01-12T07:57:34.634Z,16.825503355704697
2024-01-12T08:00:56.061Z,17.355704697986578
2024-01-12T08:05:39.164Z,17.664429530201343
2024-01-12T08:09:00.196Z,17.463087248322147
2024-01-12T08:15:25.643Z,17.959731543624162
2024-01-12T08:18:46.865Z,18.80536912751678
2024-01-12T08:22:13.299Z,18.174496644295303
2024-01-12T08:26:02.605Z,19.879194630872483
2024-01-12T08:29:23.912Z,19.812080536912752
2024-01-12T08:32:45.826Z,19.63758389261745
2024-01-12T08:36:06.066Z,18.993288590604028
2024-01-12T08:39:26.498Z,18.57046979865772
2024-01-12T08:42:47.734Z,17.664429530201343
2024-01-12T08:46:08.309Z,18.026845637583893
2024-01-12T08:49:29.344Z,18.523489932885905
2024-01-12T08:52:51.382Z,18.02013422818792
2024-01-12T08:56:12.603Z,18.06711409395973
2024-01-12T08:59:35.087Z,19.483221476510067
2024-01-12T09:02:54.853Z,19.563758389261746
2024-01-12T09:06:16.112Z,18.44295302013423
2024-01-12T09:09:37.053Z,18.74496644295302
2024-01-12T09:12:58.044Z,19.42953020134228
2024-01-12T09:16:18.587Z,18.181208053691275
2024-01-12T09:22:33.934Z,18.315436241610737
2024-01-12T09:25:55.624Z,17.516778523489933
2024-01-12T09:29:17.135Z,17.42953020134228
2024-01-12T09:32:41.996Z,17.2751677852349
2024-01-12T09:36:06.499Z,21.21476510067114
2024-01-12T09:39:28.127Z,19.516778523489933
2024-01-12T09:42:54.487Z,19.57718120805369
2024-01-12T09:46:14.323Z,20.308724832214764
2024-01-12T09:49:34.366Z,20.530201342281877
2024-01-12T09:52:55.530Z,19.29530201342282
2024-01-12T09:58:44.356Z,21.624161073825505
2024-01-12T10:02:06.247Z,20.053691275167786
2024-01-12T10:05:26.819Z,20.42953020134228
2024-01-12T10:11:21.584Z,20.671140939597315
2024-01-12T10:14:42.453Z,19.87248322147651
2024-01-12T10:18:02.669Z,20.02013422818792
2024-01-12T10:21:24.181Z,19.456375838926174
2024-01-12T10:24:45.101Z,20.456375838926174
2024-01-12T10:28:05.486Z,20.563758389261746
2024-01-12T10:31:26.603Z,20.80536912751678
2024-01-12T10:34:47.854Z,20.154362416107382
2024-01-12T10:38:08.104Z,20.14765100671141
2024-01-12T10:41:28.941Z,21.2751677852349
2024-01-12T10:44:49.420Z,20.610738255033556
2024-01-12T10:48:10.200Z,21.28187919463087
2024-01-12T10:53:37.985Z,21.993288590604028
2024-01-12T10:58:20.110Z,21.20805369127517
2024-01-12T11:01:41.587Z,23.120805369127517
2024-01-12T11:05:02.857Z,24.28187919463087
2024-01-12T11:08:23.532Z,23.221476510067113
2024-01-12T11:11:44.410Z,21.644295302013422
2024-01-12T11:15:04.853Z,22.590604026845636
2024-01-12T11:18:25.478Z,21.859060402684563
2024-01-12T11:24:30.510Z,21.328859060402685
2024-01-12T11:27:51.520Z,21.583892617449663
2024-01-12T11:31:12.415Z,20.107382550335572
2024-01-12T11:37:25.368Z,20.476510067114095
2024-01-12T11:40:46.398Z,18.751677852348994
2024-01-12T11:44:06.678Z,17.79194630872483
2024-01-12T11:47:27.327Z,17.033557046979865
2024-01-12T11:50:47.892Z,16.825503355704697
2024-01-12T11:54:08.056Z,16.684563758389263
2024-01-12T11:57:28.482Z,16.161073825503355
2024-01-12T12:00:49.506Z,15.073825503355705
2024-01-12T12:04:10.692Z,15.483221476510067
2024-01-12T12:07:31.562Z,14.778523489932885
2024-01-12T12:10:52.741Z,15.40268456375839
2024-01-12T12:14:12.810Z,15.711409395973154
2024-01-12T12:20:48.291Z,15.295302013422818
2024-01-12T12:24:12.349Z,15.322147651006711
2024-01-12T12:27:33.469Z,15.221476510067115
2024-01-12T12:32:08.820Z,15.161073825503356
2024-01-12T12:35:29.682Z,14.114093959731544
2024-01-12T12:38:51.076Z,13.463087248322148
2024-01-12T12:45:48.544Z,14.550335570469798
2024-01-12T12:49:09.509Z,12.885906040268456
2024-01-12T12:52:30.031Z,12.281879194630873
2024-01-12T12:55:51.260Z,12.718120805369127
2024-01-12T12:59:12.158Z,12.38255033557047
2024-01-12T13:02:32.559Z,12.409395973154362
2024-01-12T13:05:53.690Z,12.06711409395973
2024-01-12T13:09:13.658Z,11.953020134228188
2024-01-12T13:14:54.924Z,12.838926174496644
2024-01-12T13:18:15.369Z,12.241610738255034
2024-01-12T13:21:35.935Z,11.738255033557047
2024-01-12T13:24:57.467Z,10.825503355704697
2024-01-12T13:28:17.869Z,12.167785234899329
2024-01-12T13:31:39.133Z,11.516778523489933
2024-01-12T13:34:59.895Z,12.194630872483222
2024-01-12T13:41:33.029Z,14.74496644295302
2024-01-12T13:44:53.862Z,24.06711409395973
2024-01-12T13:50:26.788Z,18.731543624161073
2024-01-12T13:53:49.262Z,14.228187919463087
2024-01-12T13:57:10.351Z,14.812080536912752
2024-01-12T14:00:30.856Z,55.56375838926174
2024-01-12T14:03:52.067Z,39.5503355704698
2024-01-12T14:07:12.925Z,29.778523489932887
2024-01-12T14:11:57.607Z,25.91275167785235
2024-01-12T14:15:17.689Z,25.899328859060404
2024-01-12T14:18:38.587Z,20.348993288590606
2024-01-12T14:25:12.377Z,12.395973154362416
2024-01-12T14:28:35.547Z,27.120805369127517
2024-01-12T14:34:42.996Z,31.335570469798657
2024-01-12T14:38:03.165Z,23.536912751677853
2024-01-12T14:45:04.568Z,16.70469798657718
2024-01-12T14:51:16.293Z,29.154362416107382
2024-01-12T14:54:37.877Z,34.261744966442954
2024-01-12T15:00:11.536Z,20.13422818791946
2024-01-12T15:03:32.448Z,37.06711409395973
2024-01-12T15:06:53.209Z,20.053691275167786
2024-01-12T15:10:13.199Z,19.778523489932887
2024-01-12T15:13:33.839Z,39.84563758389262
2024-01-12T15:16:54.904Z,17.93288590604027
2024-01-12T15:20:15.222Z,12.409395973154362
2024-01-12T15:23:35.550Z,24.053691275167786
2024-01-12T15:27:01.413Z,21.973154362416107
2024-01-12T15:30:21.692Z,14.845637583892618
2024-01-12T15:33:42.515Z,17.046979865771814
2024-01-12T15:37:02.917Z,17.06711409395973
2024-01-12T15:40:23.525Z,9.966442953020135
2024-01-12T15:43:43.699Z,8.604026845637584
2024-01-12T15:47:04.407Z,7.651006711409396
2024-01-12T15:50:24.930Z,7.510067114093959
2024-01-12T15:53:45.626Z,7.630872483221476
2024-01-12T15:57:07.401Z,7.140939597315437
2024-01-12T16:00:28.049Z,8.590604026845638
2024-01-12T16:03:48.775Z,7.932885906040268
2024-01-12T16:07:09.309Z,8.416107382550335
2024-01-12T16:10:29.630Z,7.818791946308725
2024-01-12T16:13:50.949Z,7.12751677852349
2024-01-12T16:17:11.245Z,6.879194630872483
2024-01-12T16:20:31.456Z,7.557046979865772
2024-01-12T16:23:52.006Z,7.456375838926174
2024-01-12T16:27:12.503Z,7.409395973154362
2024-01-12T16:30:32.782Z,8.973154362416107
2024-01-12T16:33:53.745Z,10.10738255033557
2024-01-12T16:37:14.834Z,10.38255033557047
2024-01-12T16:40:35.118Z,11.563758389261745
2024-01-12T16:43:56.691Z,11.449664429530202
2024-01-12T16:47:18.702Z,11.12751677852349
2024-01-12T16:50:39.043Z,9.711409395973154
2024-01-12T16:53:59.903Z,8.93288590604027
2024-01-12T16:57:20.087Z,8.51006711409396
2024-01-12T17:02:46.287Z,9.208053691275168
2024-01-12T17:06:06.850Z,10.38255033557047
2024-01-12T17:13:23.313Z,12.181208053691275
2024-01-12T17:18:33.019Z,9.610738255033556
2024-01-12T17:21:55.018Z,10.281879194630873
2024-01-12T17:25:15.462Z,10.181208053691275
2024-01-12T17:28:35.412Z,10.268456375838927
2024-01-12T17:31:56.376Z,9.563758389261745
2024-01-12T17:35:16.641Z,9.140939597315436
2024-01-12T17:38:36.567Z,10.818791946308725
2024-01-12T17:41:57.869Z,14.48993288590604
2024-01-12T17:45:59.090Z,12.89261744966443
2024-01-12T17:49:19.473Z,10.731543624161073
2024-01-12T17:52:41.271Z,10.14765100671141
2024-01-12T17:57:03.728Z,9.369127516778523
2024-01-12T18:00:24.052Z,11.476510067114093
2024-01-12T18:03:45.073Z,9.241610738255034
2024-01-12T18:07:06.507Z,9.422818791946309
2024-01-12T18:10:26.997Z,9.61744966442953
2024-01-12T18:16:34.717Z,13.630872483221477
2024-01-12T18:20:17.063Z,28.76510067114094
2024-01-12T18:23:37.665Z,17.78523489932886
2024-01-12T18:26:59.066Z,14.167785234899329
2024-01-12T18:30:20.253Z,12.825503355704697
2024-01-12T18:36:40.447Z,9.25503355704698
2024-01-12T18:40:01.503Z,9.879194630872483
2024-01-12T18:43:22.484Z,10.449664429530202
2024-01-12T18:46:43.088Z,11.140939597315436
2024-01-12T18:50:04.422Z,11.724832214765101
2024-01-12T18:53:25.201Z,11.583892617449665
2024-01-12T18:56:46.270Z,11.40268456375839
2024-01-12T19:00:06.917Z,11.630872483221477
2024-01-12T19:03:29.473Z,10.201342281879194
2024-01-12T19:06:50.229Z,11.825503355704697
2024-01-12T19:10:10.427Z,11.563758389261745
2024-01-12T19:13:30.486Z,11.134228187919463
2024-01-12T19:17:48.286Z,16.59731543624161
2024-01-12T19:21:08.711Z,21.496644295302012
2024-01-12T19:24:29.404Z,13.194630872483222
2024-01-12T19:27:50.419Z,11.87248322147651
2024-01-12T19:31:10.977Z,12.020134228187919
2024-01-12T19:34:31.811Z,12.986577181208053
2024-01-12T19:37:52.533Z,12.315436241610739
2024-01-12T19:41:13.017Z,12.939597315436242
2024-01-12T19:44:33.371Z,10.899328859060402
2024-01-12T19:47:53.941Z,10.375838926174497
2024-01-12T19:51:14.827Z,10.711409395973154
2024-01-12T19:54:35.526Z,9.691275167785236
2024-01-12T19:57:57.991Z,9.53020134228188
2024-01-12T20:01:18.863Z,8.74496644295302
2024-01-12T20:04:46.775Z,9.429530201342281
2024-01-12T20:08:08.498Z,9.288590604026846
2024-01-12T20:11:29.851Z,8.140939597315436
2024-01-12T20:14:52.561Z,8.879194630872483
2024-01-12T20:18:13.671Z,8.570469798657719
2024-01-12T20:21:35.204Z,9.48993288590604
2024-01-12T20:24:57.044Z,8.677852348993289
2024-01-12T20:28:18.072Z,8.671140939597315
2024-01-12T20:32:35.078Z,9.979865771812081
2024-01-12T20:35:56.614Z,9.335570469798657
2024-01-12T20:40:39.375Z,9.610738255033556
2024-01-12T20:44:00.820Z,9.275167785234899
2024-01-12T20:47:21.142Z,9.946308724832214
2024-01-12T20:50:42.294Z,9.281879194630873
2024-01-12T20:54:02.879Z,8.724832214765101
2024-01-12T20:57:23.951Z,8.805369127516778
2024-01-12T21:00:44.708Z,8.100671140939598
2024-01-12T21:04:06.006Z,7.630872483221476
2024-01-12T21:07:27.319Z,7.677852348993288
2024-01-12T21:10:48.698Z,7.134228187919463
2024-01-12T21:14:09.857Z,7.23489932885906
2024-01-12T21:17:30.822Z,6.885906040268456
2024-01-12T21:26:56.659Z,6.389261744966443
2024-01-12T21:30:17.885Z,6.409395973154362
2024-01-12T21:35:47.750Z,5.865771812080537
2024-01-12T21:39:08.862Z,6.691275167785235
2024-01-12T21:42:34.674Z,6.02013422818792
2024-01-12T21:45:55.684Z,5.859060402684563
2024-01-12T21:49:16.668Z,6.060402684563758
2024-01-12T21:52:37.855Z,7.120805369127517
2024-01-12T21:58:56.530Z,7.006711409395973
2024-01-12T22:02:17.440Z,6.758389261744966
2024-01-12T22:05:38.036Z,7.3624161073825505
2024-01-12T22:08:59.373Z,7.23489932885906
2024-01-12T22:15:16.122Z,6.758389261744966
2024-01-12T22:18:36.883Z,7.348993288590604
2024-01-12T22:23:55.330Z,8.302013422818792
2024-01-12T22:27:26.856Z,8.348993288590604
